createdAt,value
2022-11-22T00:04:18.426Z,3.63
2022-11-22T00:09:20.234Z,3.63
2022-11-22T00:14:22.065Z,3.59
2022-11-22T00:19:24.073Z,3.57
2022-11-22T00:24:25.885Z,3.50
2022-11-22T00:29:27.977Z,3.46
2022-11-22T00:34:29.986Z,3.41
2022-11-22T00:39:32.581Z,3.32
2022-11-22T00:44:34.612Z,3.27
2022-11-22T00:49:36.419Z,3.15
2022-11-22T00:54:38.298Z,2.96
2022-11-22T00:59:40.078Z,2.93
2022-11-22T01:04:41.885Z,2.88
2022-11-22T01:09:43.673Z,2.88
2022-11-22T01:14:45.475Z,2.93
2022-11-22T01:19:47.355Z,2.95
2022-11-22T01:24:49.171Z,3.02
2022-11-22T01:29:50.996Z,3.01
2022-11-22T01:34:52.819Z,2.96
2022-11-22T01:39:54.811Z,2.95
2022-11-22T01:45:38.143Z,2.89
2022-11-22T01:50:43.967Z,2.87
2022-11-22T01:55:46.449Z,2.87
2022-11-22T02:00:50.332Z,2.86
2022-11-22T02:05:53.446Z,2.82
2022-11-22T02:10:56.647Z,2.83
2022-11-22T02:15:59.260Z,2.82
2022-11-22T02:21:02.240Z,2.81
2022-11-22T02:26:04.418Z,2.81
2022-11-22T02:31:06.416Z,2.81
2022-11-22T02:36:11.409Z,2.78
2022-11-22T02:41:13.184Z,2.75
2022-11-22T02:46:20.801Z,2.69
2022-11-22T02:51:22.717Z,2.68
2022-11-22T02:56:24.611Z,2.65
2022-11-22T03:01:26.506Z,2.64
2022-11-22T03:06:28.558Z,2.62
2022-11-22T03:11:30.309Z,2.65
2022-11-22T03:16:32.109Z,2.64
2022-11-22T03:21:33.889Z,2.64
2022-11-22T03:26:36.386Z,2.68
2022-11-22T03:31:38.164Z,2.67
2022-11-22T03:36:40.056Z,2.63
2022-11-22T03:41:41.904Z,2.64
2022-11-22T03:46:43.694Z,2.69
2022-11-22T03:51:45.520Z,2.65
2022-11-22T03:56:47.287Z,2.69
2022-11-22T04:01:49.278Z,2.69
2022-11-22T04:06:51.231Z,2.75
2022-11-22T04:11:53.011Z,2.76
2022-11-22T04:16:54.818Z,2.82
2022-11-22T04:21:56.632Z,2.85
2022-11-22T04:26:58.504Z,2.83
2022-11-22T04:32:18.936Z,2.90
2022-11-22T04:37:20.754Z,2.99
2022-11-22T04:42:58.522Z,3.09
2022-11-22T04:48:00.380Z,3.16
2022-11-22T04:53:02.213Z,3.24
2022-11-22T04:58:04.053Z,3.31
2022-11-22T05:03:07.197Z,3.38
2022-11-22T05:08:09.907Z,3.44
2022-11-22T05:13:11.720Z,3.47
2022-11-22T05:18:14.223Z,3.39
2022-11-22T05:23:35.415Z,3.36
2022-11-22T05:28:38.555Z,3.37
2022-11-22T05:33:43.064Z,3.37
2022-11-22T05:38:44.882Z,3.33
2022-11-22T05:43:47.082Z,3.45
2022-11-22T05:48:48.994Z,3.48
2022-11-22T05:53:50.966Z,3.49
2022-11-22T05:58:53.690Z,3.63
2022-11-22T06:03:55.564Z,3.63
2022-11-22T06:08:59.473Z,3.72
2022-11-22T06:14:03.542Z,3.78
2022-11-22T06:19:05.384Z,3.79
2022-11-22T06:24:07.941Z,3.81
2022-11-22T06:29:09.840Z,3.85
2022-11-22T06:34:13.169Z,3.95
2022-11-22T06:39:14.998Z,4.00
2022-11-22T06:44:16.987Z,4.00
2022-11-22T06:49:18.853Z,4.03
2022-11-22T06:54:20.662Z,4.05
2022-11-22T06:59:22.507Z,4.06
2022-11-22T07:04:24.346Z,4.03
2022-11-22T07:09:26.245Z,4.05
2022-11-22T07:14:28.039Z,4.11
2022-11-22T07:19:30.181Z,4.15
2022-11-22T07:24:32.258Z,4.26
2022-11-22T07:29:34.061Z,4.28
2022-11-22T07:34:35.892Z,4.35
2022-11-22T07:39:37.685Z,4.39
2022-11-22T07:44:39.563Z,4.37
2022-11-22T07:49:41.472Z,4.35
2022-11-22T07:54:43.306Z,4.39
2022-11-22T07:59:45.198Z,4.41
2022-11-22T08:04:46.995Z,4.43
2022-11-22T08:09:48.814Z,4.47
2022-11-22T08:14:50.689Z,4.53
2022-11-22T08:19:53.630Z,4.59
2022-11-22T08:24:55.863Z,4.66
2022-11-22T08:29:57.919Z,4.78
2022-11-22T08:34:59.769Z,4.89
2022-11-22T08:40:02.150Z,4.98
2022-11-22T08:45:05.771Z,5.04
2022-11-22T08:50:08.283Z,5.07
2022-11-22T08:55:10.178Z,5.15
2022-11-22T09:00:12.538Z,5.19
2022-11-22T09:05:14.485Z,5.26
2022-11-22T09:10:16.402Z,5.30
2022-11-22T09:15:18.466Z,5.37
2022-11-22T09:20:20.265Z,5.40
2022-11-22T09:25:22.493Z,5.45
2022-11-22T09:30:24.349Z,5.43
2022-11-22T09:35:26.247Z,5.49
2022-11-22T09:40:29.468Z,5.62
2022-11-22T09:46:08.863Z,5.77
2022-11-22T09:51:24.224Z,5.90
2022-11-22T09:56:28.264Z,6.04
2022-11-22T10:01:48.165Z,6.15
2022-11-22T10:06:55.898Z,6.20
2022-11-22T10:12:16.167Z,6.20
2022-11-22T10:17:18.669Z,6.30
2022-11-22T10:22:21.526Z,6.38
2022-11-22T10:27:31.761Z,6.47
2022-11-22T10:33:10.990Z,6.50
2022-11-22T10:38:22.134Z,6.55
2022-11-22T10:43:53.147Z,6.64
2022-11-22T10:49:17.428Z,6.80
2022-11-22T10:54:27.980Z,6.99
2022-11-22T10:59:58.095Z,7.10
2022-11-22T11:05:07.361Z,7.10
2022-11-22T11:10:29.202Z,7.16
2022-11-22T11:15:44.547Z,7.23
2022-11-22T11:20:49.860Z,7.28
2022-11-22T11:25:52.863Z,7.27
2022-11-22T11:31:10.891Z,7.16
2022-11-22T11:36:22.381Z,7.18
2022-11-22T11:41:40.296Z,7.09
2022-11-22T11:46:49.480Z,7.08
2022-11-22T11:52:16.583Z,7.02
2022-11-22T11:57:34.402Z,6.99
2022-11-22T12:02:41.258Z,7.02
2022-11-22T12:07:46.856Z,7.01
2022-11-22T12:13:04.645Z,6.95
2022-11-22T12:18:32.424Z,6.87
2022-11-22T12:24:13.233Z,6.84
2022-11-22T12:29:18.433Z,6.77
2022-11-22T12:34:47.348Z,6.72
2022-11-22T12:39:52.201Z,6.72
2022-11-22T12:45:04.625Z,6.73
2022-11-22T12:50:17.182Z,6.75
2022-11-22T12:55:27.017Z,6.74
2022-11-22T13:00:35.344Z,6.76
2022-11-22T13:05:43.715Z,6.77
2022-11-22T13:10:51.635Z,6.77
2022-11-22T13:15:57.326Z,6.70
2022-11-22T13:21:11.363Z,6.69
2022-11-22T13:26:22.959Z,6.72
2022-11-22T13:31:25.108Z,6.73
2022-11-22T13:36:29.943Z,6.76
2022-11-22T13:41:34.569Z,6.76
2022-11-22T13:46:58.271Z,6.79
2022-11-22T13:52:05.207Z,6.83
2022-11-22T13:57:25.620Z,6.82
2022-11-22T14:02:27.521Z,6.83
2022-11-22T14:07:37.482Z,6.88
2022-11-22T14:12:54.354Z,6.91
2022-11-22T14:18:13.198Z,6.88
2022-11-22T14:23:39.352Z,6.88
2022-11-22T14:29:18.875Z,6.95
2022-11-22T14:34:23.017Z,6.94
2022-11-22T14:39:37.252Z,6.94
2022-11-22T14:44:40.476Z,6.90
2022-11-22T14:49:46.432Z,6.85
2022-11-22T14:54:52.475Z,6.83
2022-11-22T15:00:02.922Z,6.82
2022-11-22T15:09:23.700Z,6.77
2022-11-22T15:11:38.872Z,6.70
2022-11-22T16:00:27.168Z,6.65
2022-11-22T16:06:09.035Z,6.71
2022-11-22T16:10:56.848Z,6.72
2022-11-22T16:16:19.989Z,6.71
2022-11-22T16:21:29.380Z,6.74
2022-11-22T16:26:31.269Z,6.73
2022-11-22T16:31:33.353Z,6.79
2022-11-22T16:36:35.141Z,6.85
2022-11-22T16:41:37.085Z,6.82
2022-11-22T16:46:40.662Z,6.64
2022-11-22T16:51:44.828Z,6.54
2022-11-22T16:56:46.948Z,6.41
2022-11-22T17:01:49.495Z,6.30
2022-11-22T17:06:52.328Z,6.26
2022-11-22T17:11:55.102Z,6.24
2022-11-22T17:16:56.941Z,6.26
2022-11-22T17:21:58.951Z,6.27
2022-11-22T17:27:00.826Z,6.28
2022-11-22T17:32:02.763Z,6.32
2022-11-22T17:37:04.728Z,6.32
2022-11-22T17:42:06.972Z,6.29
2022-11-22T17:47:09.018Z,6.12
2022-11-22T17:52:10.967Z,6.08
2022-11-22T17:57:13.576Z,6.07
2022-11-22T18:02:15.951Z,6.02
2022-11-22T18:07:17.862Z,5.95
2022-11-22T18:12:20.068Z,5.95
2022-11-22T18:17:21.908Z,5.98
2022-11-22T18:22:23.716Z,5.98
2022-11-22T18:27:25.514Z,5.92
2022-11-22T18:32:27.940Z,5.86
2022-11-22T18:37:29.759Z,5.82
2022-11-22T18:42:32.365Z,5.77
2022-11-22T18:47:34.586Z,5.74
2022-11-22T18:52:38.312Z,5.73
2022-11-22T18:57:40.145Z,5.76
2022-11-22T19:02:41.960Z,5.78
2022-11-22T19:07:43.823Z,5.81
2022-11-22T19:12:45.851Z,5.77
2022-11-22T19:17:47.673Z,5.82
2022-11-22T19:22:50.254Z,5.76
2022-11-22T19:27:52.067Z,5.76
2022-11-22T19:32:56.129Z,5.73
2022-11-22T19:37:57.943Z,5.74
2022-11-22T19:42:59.779Z,5.81
2022-11-22T19:48:01.585Z,5.88
2022-11-22T19:53:03.663Z,5.89
2022-11-22T19:58:06.612Z,5.91
2022-11-22T20:03:12.760Z,5.96
2022-11-22T20:08:14.563Z,5.99
2022-11-22T20:13:16.586Z,6.01
2022-11-22T20:18:18.413Z,6.02
2022-11-22T20:23:20.222Z,6.04
2022-11-22T20:28:22.025Z,6.06
2022-11-22T20:33:23.872Z,6.07
2022-11-22T20:38:25.757Z,6.07
2022-11-22T20:43:28.416Z,6.08
2022-11-22T20:48:31.738Z,6.05
2022-11-22T20:53:34.033Z,6.04
2022-11-22T20:58:36.136Z,5.98
2022-11-22T21:03:38.058Z,5.95
2022-11-22T21:08:40.293Z,5.97
2022-11-22T21:13:42.925Z,5.93
2022-11-22T21:18:44.817Z,5.88
2022-11-22T21:23:46.601Z,5.78
2022-11-22T21:28:49.083Z,5.81
2022-11-22T21:33:51.609Z,5.88
2022-11-22T21:38:53.457Z,5.95
2022-11-22T21:43:56.176Z,6.02
2022-11-22T21:48:58.052Z,6.02
2022-11-22T21:54:01.493Z,5.94
2022-11-22T21:59:03.419Z,5.89
2022-11-22T22:04:05.564Z,5.87
2022-11-22T22:09:07.430Z,5.88
2022-11-22T22:14:09.878Z,5.90
2022-11-22T22:19:11.730Z,5.87
2022-11-22T22:24:13.875Z,5.76
2022-11-22T22:29:15.741Z,5.76
2022-11-22T22:34:18.380Z,5.79
2022-11-22T22:39:20.250Z,5.78
2022-11-22T22:44:22.273Z,5.79
2022-11-22T22:49:24.064Z,5.81
2022-11-22T22:54:25.887Z,5.83
2022-11-22T22:59:27.782Z,5.79
2022-11-22T23:04:29.710Z,5.71
2022-11-22T23:09:32.319Z,5.66
2022-11-22T23:14:34.465Z,5.60
2022-11-22T23:19:36.397Z,5.57
2022-11-22T23:24:38.315Z,5.54
2022-11-22T23:29:40.248Z,5.59
2022-11-22T23:34:42.214Z,5.60
2022-11-22T23:39:44.121Z,5.58
2022-11-22T23:44:46.095Z,5.57
2022-11-22T23:49:48.426Z,5.54
2022-11-22T23:54:50.404Z,5.50
2022-11-22T23:59:52.291Z,5.40
